Nearby METAR Reports

 

EGMC - Southend-On-Sea, United Kingdom
Distance from station: NE 10km
Updated: 27/04/2018 04:50
Clear
Clear
 Wind from SSW
Wind: SSW 5 mph , 7 km/h
Temperature: 8°C
Wind Chill: 7°C
Dew Point: 5°C
Humidity: 82%
Barometer: 1011 hPa
Summary: Clear
Visibility: greater than 7 miles , 10 km
2018/04/27 03:50 EGMC 270350Z 20004KT CAVOK 08/05 Q1011
EGLC - London City Airp, United Kingdom
Distance from station: W 37km
Updated: 27/04/2018 05:20
Clear
Clear
 Wind from S
Wind: S 5 mph , 7 km/h
Temperature: 9°C
Wind Chill: 8°C
Dew Point: 7°C
Humidity: 87%
Barometer: 1011 hPa
Clouds: Clear
Visibility: 6 miles , 10 km
2018/04/27 04:20 EGLC 270420Z AUTO 17004KT 130V200 9999 NCD 09/07 Q1011
EGKB - Biggin Hill, United Kingdom
Distance from station: WSW 45km
Updated: 26/04/2018 22:20
NOT Current
Clear
Clear
 Wind from SSW
Wind: SSW 10 mph , 17 km/h
Temperature: 8°C
Wind Chill: 5°C
Dew Point: 6°C
Humidity: 87%
Barometer: 1015 hPa
Summary: Clear
Visibility: greater than 7 miles , 10 km
2018/04/26 21:20 EGKB 262120Z 20009KT CAVOK 08/06 Q1015
 
EGSS - Stansted Airport, United Kingdom
Distance from station: NNW 48km
Updated: 27/04/2018 05:20
Clear
Clear
 Wind from S
Wind: S 3 mph , 6 km/h
Temperature: 6°C
Dew Point: 5°C
Humidity: 93%
Barometer: 1011 hPa
Clouds: Clear
Visibility: 6 miles , 10 km
2018/04/27 04:20 EGSS 270420Z AUTO 18003KT 9999 NCD 06/05 Q1011
EGKK - London/Gatwick A, United Kingdom
Distance from station: SW 67km
Updated: 27/04/2018 05:20
Light rain, Mostly cloudy
Light rain, Mostly cloudy
 Wind from SSE
Wind: SSE 3 mph , 6 km/h
Temperature: 8°C
Dew Point: 7°C
Humidity: 93%
Barometer: 1011 hPa
Summary: Light rain
Clouds: Mostly cloudy
Visibility: 5 miles , 8 km
Cloud details: Mostly cloudy 1280 m
2018/04/27 04:20 EGKK 270420Z 15003KT 8000 -RA BKN042 08/07 Q1011
EGMD - Lydd Airport, United Kingdom
Distance from station: SSE 67km
Updated: 27/04/2018 05:20
Overcast
Overcast
 Wind from calm
Wind: Calm
Temperature: 9°C
Dew Point: 7°C
Humidity: 87%
Barometer: 1012 hPa
Clouds: Overcast
Visibility: 6 miles , 10 km
Cloud details: Overcast 1402 m
2018/04/27 04:20 EGMD 270420Z AUTO 00000KT 9999 OVC046/// 09/07 Q1012
 
EGWU - Northolt Raf, United Kingdom
Distance from station: W 69km
Updated: 27/04/2018 04:50
Overcast
Overcast
 Wind from SE
Wind: SE 3 mph , 6 km/h
Temperature: 8°C
Dew Point: 6°C
Humidity: 87%
Barometer: 1011 hPa
Clouds: Overcast
Visibility: 6 miles , 10 km
Cloud details: Overcast 2134 m
2018/04/27 03:50 EGWU 270350Z AUTO 13003KT 9999 // OVC070/// 08/06 Q1011
EGLL - London/Heathrow, United Kingdom
Distance from station: W 72km
Updated: 27/04/2018 05:20
Light rain, Clear
Light rain, Clear
 Wind from SSE
Wind: SSE 5 mph , 7 km/h
Temperature: 8°C
Wind Chill: 7°C
Dew Point: 7°C
Humidity: 93%
Barometer: 1011 hPa
Summary: Light rain
Clouds: Clear
Visibility: 6 miles , 10 km
2018/04/27 04:20 EGLL 270420Z AUTO 16004KT 9999 -RA NCD 08/07 Q1011 TEMPO RA
EGUW - Wattisham Raf, United Kingdom
Distance from station: NNE 72km
Updated: 27/04/2018 04:50
Overcast
Overcast
 Wind from S
Wind: S 6 mph , 9 km/h
Temperature: 6°C
Wind Chill: 4°C
Dew Point: 5°C
Humidity: 93%
Barometer: 1011 hPa
Clouds: Overcast
Visibility: 6 miles , 10 km
Cloud details: Overcast 3048 m
2018/04/27 03:50 EGUW 270350Z AUTO 19005KT 9999 OVC100/// 06/05 Q1011
 
EGGW - Luton Airport, United Kingdom
Distance from station: WNW 76km
Updated: 27/04/2018 05:20
Few Clouds
Few Clouds
 Wind from SE
Wind: SE 2 mph , 4 km/h
Temperature: 6°C
Dew Point: 5°C
Humidity: 93%
Barometer: 1010 hPa
Clouds: Few Clouds
Visibility: 6 miles , 10 km
Cloud details: Few Clouds 1433 m
2018/04/27 04:20 EGGW 270420Z AUTO 13002KT 9999 FEW047 06/05 Q1010
EGSC - Cambridge, United Kingdom
Distance from station: NNW 81km
Updated: 26/04/2018 17:50
NOT Current
Nearby showers, Partly cloudy
Nearby showers, Partly cloudy
 Wind from WSW
Wind: WSW 12 mph , 19 km/h
Temperature: 12°C
Dew Point: 3°C
Humidity: 54%
Barometer: 1014 hPa
Summary: Nearby Showers
Clouds: Partly cloudy
Visibility: 6 miles , 10 km
Cloud details: Partly cloudy 1311 m
2018/04/26 16:50 EGSC 261650Z 24010KT 9999 VCSH SCT043 12/03 Q1014